sensor_id;sensor_type;location;lat;lon;timestamp;pressure;altitude;pressure_sealevel;temperature;humidity
72585;BME280;60618;40.084;32.908;2022-09-17T00:01:21;89285.50;;;25.01;39.86
72585;BME280;60618;40.084;32.908;2022-09-17T00:04:00;89289.50;;;25.00;39.99
72585;BME280;60618;40.084;32.908;2022-09-17T00:06:27;89293.53;;;24.99;40.13
72585;BME280;60618;40.084;32.908;2022-09-17T00:08:54;89293.34;;;24.97;39.94
72585;BME280;60618;40.084;32.908;2022-09-17T00:11:24;89295.34;;;24.97;40.10
72585;BME280;60618;40.084;32.908;2022-09-17T00:13:53;89295.34;;;24.97;40.52
72585;BME280;60618;40.084;32.908;2022-09-17T00:16:34;89291.78;;;24.94;40.44
72585;BME280;60618;40.084;32.908;2022-09-17T00:19:03;89287.03;;;24.95;40.48
72585;BME280;60618;40.084;32.908;2022-09-17T00:21:31;89295.78;;;24.93;40.70
72585;BME280;60618;40.084;32.908;2022-09-17T00:24:01;89292.91;;;24.91;40.90
72585;BME280;60618;40.084;32.908;2022-09-17T00:26:28;89289.47;;;24.90;41.16
72585;BME280;60618;40.084;32.908;2022-09-17T00:28:57;89294.91;;;24.90;41.29
72585;BME280;60618;40.084;32.908;2022-09-17T00:31:26;89287.28;;;24.89;41.25
72585;BME280;60618;40.084;32.908;2022-09-17T00:33:54;89283.13;;;24.88;41.15
72585;BME280;60618;40.084;32.908;2022-09-17T00:36:21;89283.69;;;24.86;41.71
72585;BME280;60618;40.084;32.908;2022-09-17T00:38:53;89286.41;;;24.86;41.22
72585;BME280;60618;40.084;32.908;2022-09-17T00:41:22;89282.97;;;24.86;41.32
72585;BME280;60618;40.084;32.908;2022-09-17T00:43:52;89282.69;;;24.82;41.43
72585;BME280;60618;40.084;32.908;2022-09-17T00:48:56;89288.13;;;24.82;41.81
72585;BME280;60618;40.084;32.908;2022-09-17T00:51:30;89288.13;;;24.82;41.99
72585;BME280;60618;40.084;32.908;2022-09-17T00:54:00;89287.97;;;24.80;41.84
72585;BME280;60618;40.084;32.908;2022-09-17T00:56:34;89285.81;;;24.78;41.91
72585;BME280;60618;40.084;32.908;2022-09-17T00:59:02;89290.53;;;24.78;41.89
72585;BME280;60618;40.084;32.908;2022-09-17T01:01:30;89285.09;;;24.78;42.21
72585;BME280;60618;40.084;32.908;2022-09-17T01:03:58;89283.66;;;24.77;41.94
72585;BME280;60618;40.084;32.908;2022-09-17T01:06:37;89283.66;;;24.77;42.12
72585;BME280;60618;40.084;32.908;2022-09-17T01:12:14;89270.59;;;24.75;42.15
72585;BME280;60618;40.084;32.908;2022-09-17T01:14:59;89275.34;;;24.75;42.04
72585;BME280;60618;40.084;32.908;2022-09-17T01:37:07;89268.56;;;24.66;42.82
72585;BME280;60618;40.084;32.908;2022-09-17T01:42:48;89278.72;;;24.66;42.82
72585;BME280;60618;40.084;32.908;2022-09-17T01:48:20;89269.69;;;24.63;42.86
72585;BME280;60618;40.084;32.908;2022-09-17T01:51:08;89268.97;;;24.62;43.02
72585;BME280;60618;40.084;32.908;2022-09-17T01:53:54;89270.94;;;24.62;42.81
72585;BME280;60618;40.084;32.908;2022-09-17T01:56:32;89268.97;;;24.62;43.04
72585;BME280;60618;40.084;32.908;2022-09-17T01:59:24;89263.34;;;24.60;43.06
72585;BME280;60618;40.084;32.908;2022-09-17T02:01:57;89272.81;;;24.59;43.21
72585;BME280;60618;40.084;32.908;2022-09-17T02:04:29;89278.25;;;24.59;43.35
72585;BME280;60618;40.084;32.908;2022-09-17T02:07:08;89267.94;;;24.58;43.55
72585;BME280;60618;40.084;32.908;2022-09-17T02:09:45;89274.09;;;24.58;43.11
72585;BME280;60618;40.084;32.908;2022-09-17T02:12:19;89266.50;;;24.57;43.32
72585;BME280;60618;40.084;32.908;2022-09-17T02:14:52;89271.94;;;24.57;43.54
72585;BME280;60618;40.084;32.908;2022-09-17T02:17:47;89269.94;;;24.57;43.47
72585;BME280;60618;40.084;32.908;2022-09-17T02:20:29;89271.22;;;24.56;43.34
72585;BME280;60618;40.084;32.908;2022-09-17T02:23:05;89270.50;;;24.56;43.88
72585;BME280;60618;40.084;32.908;2022-09-17T02:25:41;89262.19;;;24.54;43.67
72585;BME280;60618;40.084;32.908;2022-09-17T02:30:45;89262.00;;;24.52;43.61
72585;BME280;60618;40.084;32.908;2022-09-17T02:33:14;89264.75;;;24.52;43.98
72585;BME280;60618;40.084;32.908;2022-09-17T02:35:41;89265.47;;;24.52;43.82
72585;BME280;60618;40.084;32.908;2022-09-17T02:38:09;89259.28;;;24.52;43.57
72585;BME280;60618;40.084;32.908;2022-09-17T02:40:50;89264.03;;;24.51;43.70
72585;BME280;60618;40.084;32.908;2022-09-17T02:52:10;89263.72;;;24.47;43.76
72585;BME280;60618;40.084;32.908;2022-09-17T02:55:01;89263.00;;;24.47;43.71
72585;BME280;60618;40.084;32.908;2022-09-17T02:57:38;89259.38;;;24.44;44.47
72585;BME280;60618;40.084;32.908;2022-09-17T03:00:12;89264.84;;;24.44;44.40
72585;BME280;60618;40.084;32.908;2022-09-17T03:03:08;89258.66;;;24.44;44.50
72585;BME280;60618;40.084;32.908;2022-09-17T03:05:38;89256.50;;;24.42;44.46
72585;BME280;60618;40.084;32.908;2022-09-17T03:08:08;89256.50;;;24.42;44.45
72585;BME280;60618;40.084;32.908;2022-09-17T03:10:37;89255.09;;;24.41;44.13
72585;BME280;60618;40.084;32.908;2022-09-17T03:13:05;89263.09;;;24.39;44.33
72585;BME280;60618;40.084;32.908;2022-09-17T03:15:32;89259.66;;;24.39;44.29
72585;BME280;60618;40.084;32.908;2022-09-17T03:17:59;89263.09;;;24.39;44.38
72585;BME280;60618;40.084;32.908;2022-09-17T03:20:39;89263.66;;;24.38;44.40
72585;BME280;60618;40.084;32.908;2022-09-17T03:23:06;89263.53;;;24.36;44.50
72585;BME280;60618;40.084;32.908;2022-09-17T03:25:55;89260.06;;;24.35;44.52
72585;BME280;60618;40.084;32.908;2022-09-17T03:28:22;89261.34;;;24.34;44.27
72585;BME280;60618;40.084;32.908;2022-09-17T03:30:49;89262.63;;;24.33;44.62
72585;BME280;60618;40.084;32.908;2022-09-17T03:33:17;89259.91;;;24.33;44.63
72585;BME280;60618;40.084;32.908;2022-09-17T03:35:44;89261.91;;;24.32;44.62
72585;BME280;60618;40.084;32.908;2022-09-17T03:38:12;89263.19;;;24.31;44.37
72585;BME280;60618;40.084;32.908;2022-09-17T03:40:39;89258.47;;;24.32;44.83
72585;BME280;60618;40.084;32.908;2022-09-17T03:43:06;89258.47;;;24.32;44.81
72585;BME280;60618;40.084;32.908;2022-09-17T03:45:34;89265.34;;;24.33;44.73
72585;BME280;60618;40.084;32.908;2022-09-17T03:48:01;89262.78;;;24.35;45.16
72585;BME280;60618;40.084;32.908;2022-09-17T03:50:28;89261.50;;;24.36;44.93
72585;BME280;60618;40.084;32.908;2022-09-17T03:52:55;89261.81;;;24.40;44.90
72585;BME280;60618;40.084;32.908;2022-09-17T03:55:21;89264.13;;;24.44;44.64
72585;BME280;60618;40.084;32.908;2022-09-17T03:57:48;89262.28;;;24.46;44.81
72585;BME280;60618;40.084;32.908;2022-09-17T04:00:19;89257.13;;;24.50;44.49
72585;BME280;60618;40.084;32.908;2022-09-17T04:02:47;89257.03;;;24.58;44.73
72585;BME280;60618;40.084;32.908;2022-09-17T04:05:14;89259.50;;;24.63;44.36
72585;BME280;60618;40.084;32.908;2022-09-17T04:07:41;89256.13;;;24.73;44.20
72585;BME280;60618;40.084;32.908;2022-09-17T04:10:08;89252.72;;;24.82;44.41
72585;BME280;60618;40.084;32.908;2022-09-17T04:12:35;89260.94;;;24.91;44.10
72585;BME280;60618;40.084;32.908;2022-09-17T04:15:02;89256.81;;;25.00;43.89
72585;BME280;60618;40.084;32.908;2022-09-17T04:17:29;89260.44;;;25.12;43.69
72585;BME280;60618;40.084;32.908;2022-09-17T04:19:57;89262.63;;;25.24;43.50
72585;BME280;60618;40.084;32.908;2022-09-17T04:22:30;89252.63;;;25.36;43.39
72585;BME280;60618;40.084;32.908;2022-09-17T04:24:59;89252.09;;;25.47;42.91
72585;BME280;60618;40.084;32.908;2022-09-17T04:27:26;89256.97;;;25.58;42.62
72585;BME280;60618;40.084;32.908;2022-09-17T04:29:52;89257.13;;;25.70;42.48
72585;BME280;60618;40.084;32.908;2022-09-17T04:32:19;89260.06;;;25.82;42.29
72585;BME280;60618;40.084;32.908;2022-09-17T04:34:47;89258.75;;;25.92;41.90
72585;BME280;60618;40.084;32.908;2022-09-17T04:37:14;89265.06;;;26.04;42.06
72585;BME280;60618;40.084;32.908;2022-09-17T04:39:41;89262.50;;;26.16;41.60
72585;BME280;60618;40.084;32.908;2022-09-17T04:42:08;89260.47;;;26.26;41.51
72585;BME280;60618;40.084;32.908;2022-09-17T04:44:42;89253.72;;;26.37;41.11
72585;BME280;60618;40.084;32.908;2022-09-17T04:47:09;89260.03;;;26.49;41.10
72585;BME280;60618;40.084;32.908;2022-09-17T04:49:36;89255.25;;;26.59;40.92
72585;BME280;60618;40.084;32.908;2022-09-17T04:52:03;89266.91;;;26.70;40.87
72585;BME280;60618;40.084;32.908;2022-09-17T04:54:30;89271.78;;;26.81;40.42
72585;BME280;60618;40.084;32.908;2022-09-17T04:56:58;89273.75;;;26.90;40.23
72585;BME280;60618;40.084;32.908;2022-09-17T04:59:25;89268.25;;;27.00;40.39
72585;BME280;60618;40.084;32.908;2022-09-17T05:01:52;89275.16;;;27.10;39.92
72585;BME280;60618;40.084;32.908;2022-09-17T05:04:28;89277.25;;;27.22;39.88
72585;BME280;60618;40.084;32.908;2022-09-17T05:06:55;89275.78;;;27.30;39.72
72585;BME280;60618;40.084;32.908;2022-09-17T05:09:24;89277.50;;;27.35;35.73
72585;BME280;60618;40.084;32.908;2022-09-17T05:11:52;89270.31;;;27.30;30.97
72585;BME280;60618;40.084;32.908;2022-09-17T05:14:18;89269.03;;;27.22;30.58
72585;BME280;60618;40.084;32.908;2022-09-17T05:16:45;89273.41;;;27.15;29.86
72585;BME280;60618;40.084;32.908;2022-09-17T05:19:12;89273.25;;;27.13;29.81
72585;BME280;60618;40.084;32.908;2022-09-17T05:21:39;89279.59;;;27.15;29.35
72585;BME280;60618;40.084;32.908;2022-09-17T05:24:06;89272.25;;;27.18;28.85
72585;BME280;60618;40.084;32.908;2022-09-17T05:26:33;89270.34;;;27.21;28.19
72585;BME280;60618;40.084;32.908;2022-09-17T05:29:00;89270.47;;;27.23;28.81
72585;BME280;60618;40.084;32.908;2022-09-17T05:31:27;89267.44;;;27.28;30.39
72585;BME280;60618;40.084;32.908;2022-09-17T05:33:54;89275.72;;;27.40;30.67
72585;BME280;60618;40.084;32.908;2022-09-17T05:36:21;89269.66;;;27.51;31.13
72585;BME280;60618;40.084;32.908;2022-09-17T05:38:48;89274.34;;;27.60;30.87
72585;BME280;60618;40.084;32.908;2022-09-17T05:41:15;89268.72;;;27.68;29.23
72585;BME280;60618;40.084;32.908;2022-09-17T05:43:42;89273.72;;;27.71;28.64
72585;BME280;60618;40.084;32.908;2022-09-17T05:46:09;89271.97;;;27.76;28.45
72585;BME280;60618;40.084;32.908;2022-09-17T05:48:36;89271.34;;;27.87;30.94
72585;BME280;60618;40.084;32.908;2022-09-17T05:51:03;89267.66;;;27.94;29.35
72585;BME280;60618;40.084;32.908;2022-09-17T05:53:30;89269.50;;;28.02;30.26
72585;BME280;60618;40.084;32.908;2022-09-17T05:55:58;89274.19;;;28.11;30.30
72585;BME280;60618;40.084;32.908;2022-09-17T05:58:25;89270.28;;;28.14;30.25
72585;BME280;60618;40.084;32.908;2022-09-17T06:00:52;89269.09;;;28.17;28.69
72585;BME280;60618;40.084;32.908;2022-09-17T06:03:20;89274.97;;;28.23;29.48
72585;BME280;60618;40.084;32.908;2022-09-17T06:05:53;89271.75;;;28.26;27.60
72585;BME280;60618;40.084;32.908;2022-09-17T06:08:21;89281.00;;;28.31;26.09
72585;BME280;60618;40.084;32.908;2022-09-17T06:10:48;89275.63;;;28.33;26.35
72585;BME280;60618;40.084;32.908;2022-09-17T06:13:16;89272.69;;;28.41;28.58
72585;BME280;60618;40.084;32.908;2022-09-17T06:15:51;89280.56;;;28.46;26.84
72585;BME280;60618;40.084;32.908;2022-09-17T06:18:18;89287.84;;;28.53;28.53
72585;BME280;60618;40.084;32.908;2022-09-17T06:20:53;89282.75;;;28.60;28.29
72585;BME280;60618;40.084;32.908;2022-09-17T06:23:21;89288.75;;;28.68;28.70
72585;BME280;60618;40.084;32.908;2022-09-17T06:25:55;89293.88;;;28.73;29.13
72585;BME280;60618;40.084;32.908;2022-09-17T06:28:24;89290.78;;;28.79;29.66
72585;BME280;60618;40.084;32.908;2022-09-17T06:30:51;89286.53;;;28.88;28.92
72585;BME280;60618;40.084;32.908;2022-09-17T06:33:18;89295.00;;;28.92;28.12
72585;BME280;60618;40.084;32.908;2022-09-17T06:35:45;89296.59;;;28.95;28.46
72585;BME280;60618;40.084;32.908;2022-09-17T06:38:12;89294.06;;;28.99;28.31
72585;BME280;60618;40.084;32.908;2022-09-17T06:40:38;89288.09;;;29.02;27.50
72585;BME280;60618;40.084;32.908;2022-09-17T06:43:17;89285.50;;;29.04;27.88
72585;BME280;60618;40.084;32.908;2022-09-17T06:45:59;89293.38;;;29.10;26.83
72585;BME280;60618;40.084;32.908;2022-09-17T06:48:28;89290.28;;;29.16;26.64
72585;BME280;60618;40.084;32.908;2022-09-17T06:51:00;89290.78;;;29.24;27.51
72585;BME280;60618;40.084;32.908;2022-09-17T06:53:28;89295.19;;;29.29;27.60
72585;BME280;60618;40.084;32.908;2022-09-17T06:55:57;89286.59;;;29.34;28.10
72585;BME280;60618;40.084;32.908;2022-09-17T06:58:31;89288.88;;;29.38;26.48
72585;BME280;60618;40.084;32.908;2022-09-17T07:01:01;89279.47;;;29.41;25.67
72585;BME280;60618;40.084;32.908;2022-09-17T07:03:29;89282.00;;;29.49;27.54
72585;BME280;60618;40.084;32.908;2022-09-17T07:05:57;89276.25;;;29.56;27.09
72585;BME280;60618;40.084;32.908;2022-09-17T07:08:24;89270.50;;;29.64;26.66
72585;BME280;60618;40.084;32.908;2022-09-17T07:10:54;89277.19;;;29.73;26.73
72585;BME280;60618;40.084;32.908;2022-09-17T07:13:22;89272.16;;;29.81;25.95
72585;BME280;60618;40.084;32.908;2022-09-17T07:16:03;89270.50;;;29.87;24.94
72585;BME280;60618;40.084;32.908;2022-09-17T07:18:31;89264.25;;;29.99;25.16
72585;BME280;60618;40.084;32.908;2022-09-17T07:21:09;89269.88;;;30.12;24.99
72585;BME280;60618;40.084;32.908;2022-09-17T07:23:37;89277.13;;;30.19;25.26
72585;BME280;60618;40.084;32.908;2022-09-17T07:26:06;89267.81;;;30.24;24.14
72585;BME280;60618;40.084;32.908;2022-09-17T07:28:34;89261.34;;;30.32;24.75
72585;BME280;60618;40.084;32.908;2022-09-17T07:31:04;89261.06;;;30.39;23.30
72585;BME280;60618;40.084;32.908;2022-09-17T07:33:33;89259.25;;;30.44;24.58
72585;BME280;60618;40.084;32.908;2022-09-17T07:36:02;89261.03;;;30.51;24.70
72585;BME280;60618;40.084;32.908;2022-09-17T07:38:29;89258.59;;;30.57;24.09
72585;BME280;60618;40.084;32.908;2022-09-17T07:41:09;89253.69;;;30.67;23.59
72585;BME280;60618;40.084;32.908;2022-09-17T07:43:37;89253.41;;;30.75;21.88
72585;BME280;60618;40.084;32.908;2022-09-17T07:46:13;89259.56;;;30.87;22.86
72585;BME280;60618;40.084;32.908;2022-09-17T07:48:45;89252.88;;;31.04;22.63
72585;BME280;60618;40.084;32.908;2022-09-17T07:51:28;89252.31;;;31.19;21.03
72585;BME280;60618;40.084;32.908;2022-09-17T07:53:58;89251.44;;;31.42;21.96
72585;BME280;60618;40.084;32.908;2022-09-17T07:56:37;89245.34;;;31.57;20.79
72585;BME280;60618;40.084;32.908;2022-09-17T07:59:08;89242.69;;;31.73;21.17
72585;BME280;60618;40.084;32.908;2022-09-17T08:01:35;89240.56;;;31.85;20.85
72585;BME280;60618;40.084;32.908;2022-09-17T08:04:02;89234.44;;;32.01;20.29
72585;BME280;60618;40.084;32.908;2022-09-17T08:06:36;89236.97;;;32.10;19.94
72585;BME280;60618;40.084;32.908;2022-09-17T08:09:26;89231.22;;;32.20;20.33
72585;BME280;60618;40.084;32.908;2022-09-17T08:11:57;89236.50;;;32.30;20.31
72585;BME280;60618;40.084;32.908;2022-09-17T08:14:24;89221.09;;;32.38;19.64
72585;BME280;60618;40.084;32.908;2022-09-17T08:16:57;89235.38;;;32.48;18.68
72585;BME280;60618;40.084;32.908;2022-09-17T08:19:24;89220.34;;;32.52;18.02
72585;BME280;60618;40.084;32.908;2022-09-17T08:21:54;89217.47;;;32.50;18.42
72585;BME280;60618;40.084;32.908;2022-09-17T08:24:42;89207.41;;;32.40;18.33
72585;BME280;60618;40.084;32.908;2022-09-17T08:27:23;89231.31;;;32.22;19.28
72585;BME280;60618;40.084;32.908;2022-09-17T08:29:50;89219.09;;;32.11;18.58
72585;BME280;60618;40.084;32.908;2022-09-17T08:32:17;89232.28;;;31.99;19.29
72585;BME280;60618;40.084;32.908;2022-09-17T08:35:05;89227.69;;;32.04;18.01
72585;BME280;60618;40.084;32.908;2022-09-17T08:37:32;89223.19;;;32.10;18.08
72585;BME280;60618;40.084;32.908;2022-09-17T08:39:59;89217.69;;;32.10;18.20
72585;BME280;60618;40.084;32.908;2022-09-17T08:44:56;89212.06;;;32.08;18.13
72585;BME280;60618;40.084;32.908;2022-09-17T08:47:38;89215.94;;;32.03;18.36
72585;BME280;60618;40.084;32.908;2022-09-17T08:53:12;89208.09;;;31.98;18.22
72585;BME280;60618;40.084;32.908;2022-09-17T08:58:58;89173.91;;;32.03;19.20
72585;BME280;60618;40.084;32.908;2022-09-17T09:02:02;89217.84;;;32.28;18.72
72585;BME280;60618;40.084;32.908;2022-09-17T09:05:12;89173.66;;;32.56;18.59
72585;BME280;60618;40.084;32.908;2022-09-17T09:08:01;89185.88;;;32.82;18.25
72585;BME280;60618;40.084;32.908;2022-09-17T09:10:50;89197.94;;;33.04;18.02
72585;BME280;60618;40.084;32.908;2022-09-17T09:13:20;89169.00;;;33.21;17.97
72585;BME280;60618;40.084;32.908;2022-09-17T09:15:58;89182.72;;;33.35;16.92
72585;BME280;60618;40.084;32.908;2022-09-17T09:18:43;89173.00;;;33.50;17.02
72585;BME280;60618;40.084;32.908;2022-09-17T09:27:30;89168.78;;;33.80;16.54
72585;BME280;60618;40.084;32.908;2022-09-17T09:30:17;89168.94;;;33.84;16.83
72585;BME280;60618;40.084;32.908;2022-09-17T09:33:10;89187.66;;;33.86;16.96
72585;BME280;60618;40.084;32.908;2022-09-17T09:36:06;89162.91;;;33.88;16.76
72585;BME280;60618;40.084;32.908;2022-09-17T09:41:43;89189.34;;;33.93;17.36
72585;BME280;60618;40.084;32.908;2022-09-17T09:44:15;89165.91;;;33.94;16.56
72585;BME280;60618;40.084;32.908;2022-09-17T09:52:41;89165.97;;;33.96;16.48
72585;BME280;60618;40.084;32.908;2022-09-17T10:01:16;89156.91;;;33.78;16.64
72585;BME280;60618;40.084;32.908;2022-09-17T10:03:52;89147.75;;;33.73;16.75
72585;BME280;60618;40.084;32.908;2022-09-17T10:06:29;89145.53;;;33.70;17.02
72585;BME280;60618;40.084;32.908;2022-09-17T10:11:30;89128.25;;;33.69;17.14
72585;BME280;60618;40.084;32.908;2022-09-17T10:14:40;89116.59;;;33.71;17.09
72585;BME280;60618;40.084;32.908;2022-09-17T10:17:23;89133.25;;;33.73;16.93
72585;BME280;60618;40.084;32.908;2022-09-17T10:22:45;89109.47;;;33.66;16.17
72585;BME280;60618;40.084;32.908;2022-09-17T10:25:22;89112.06;;;33.62;16.22
72585;BME280;60618;40.084;32.908;2022-09-17T10:27:52;89117.50;;;33.59;16.70
72585;BME280;60618;40.084;32.908;2022-09-17T10:30:20;89113.38;;;33.60;17.13
72585;BME280;60618;40.084;32.908;2022-09-17T10:35:40;89121.84;;;33.65;16.89
72585;BME280;60618;40.084;32.908;2022-09-17T10:38:36;89099.75;;;33.65;16.42
72585;BME280;60618;40.084;32.908;2022-09-17T10:41:19;89102.44;;;33.63;17.18
72585;BME280;60618;40.084;32.908;2022-09-17T10:46:26;89112.16;;;33.64;16.70
72585;BME280;60618;40.084;32.908;2022-09-17T10:49:11;89108.03;;;33.65;16.83
72585;BME280;60618;40.084;32.908;2022-09-17T10:51:43;89106.53;;;33.62;16.41
72585;BME280;60618;40.084;32.908;2022-09-17T10:54:32;89113.50;;;33.63;16.89
72585;BME280;60618;40.084;32.908;2022-09-17T10:57:05;89100.28;;;33.61;16.57
72585;BME280;60618;40.084;32.908;2022-09-17T10:59:45;89102.25;;;33.58;16.56
72585;BME280;60618;40.084;32.908;2022-09-17T11:02:38;89095.31;;;33.57;16.87
72585;BME280;60618;40.084;32.908;2022-09-17T11:11:09;89085.75;;;33.60;17.23
72585;BME280;60618;40.084;32.908;2022-09-17T11:27:41;89101.03;;;33.62;17.20
72585;BME280;60618;40.084;32.908;2022-09-17T11:30:19;89085.69;;;33.58;16.51
72585;BME280;60618;40.084;32.908;2022-09-17T11:33:13;89091.22;;;33.58;17.18
72585;BME280;60618;40.084;32.908;2022-09-17T11:35:48;89091.22;;;33.58;16.64
72585;BME280;60618;40.084;32.908;2022-09-17T11:38:38;89067.63;;;33.55;17.06
72585;BME280;60618;40.084;32.908;2022-09-17T11:41:06;89050.97;;;33.53;16.99
72585;BME280;60618;40.084;32.908;2022-09-17T11:43:43;89072.44;;;33.55;17.80
72585;BME280;60618;40.084;32.908;2022-09-17T11:46:24;89067.63;;;33.55;17.60
72585;BME280;60618;40.084;32.908;2022-09-17T11:49:04;89055.78;;;33.53;17.60
72585;BME280;60618;40.084;32.908;2022-09-17T11:51:39;89039.91;;;33.53;16.99
72585;BME280;60618;40.084;32.908;2022-09-17T11:56:44;89060.50;;;33.50;17.11
72585;BME280;60618;40.084;32.908;2022-09-17T11:59:36;89066.03;;;33.50;16.85
72585;BME280;60618;40.084;32.908;2022-09-17T12:04:53;89046.69;;;33.50;17.43
72585;BME280;60618;40.084;32.908;2022-09-17T12:07:30;89037.69;;;33.50;17.53
72585;BME280;60618;40.084;32.908;2022-09-17T12:12:58;89020.34;;;33.47;17.43
72585;BME280;60618;40.084;32.908;2022-09-17T12:15:34;89032.81;;;33.48;17.39
72585;BME280;60618;40.084;32.908;2022-09-17T12:21:26;89031.47;;;33.49;18.43
72585;BME280;60618;40.084;32.908;2022-09-17T12:24:21;89025.22;;;33.49;17.95
72585;BME280;60618;40.084;32.908;2022-09-17T12:30:03;89018.91;;;33.46;17.60
72585;BME280;60618;40.084;32.908;2022-09-17T12:32:58;89015.38;;;33.44;18.20
72585;BME280;60618;40.084;32.908;2022-09-17T12:39:03;89014.66;;;33.43;17.61
72585;BME280;60618;40.084;32.908;2022-09-17T12:41:53;89018.03;;;33.42;17.69
72585;BME280;60618;40.084;32.908;2022-09-17T12:50:26;89015.00;;;33.36;17.62
72585;BME280;60618;40.084;32.908;2022-09-17T12:53:14;89011.44;;;33.33;17.44
72585;BME280;60618;40.084;32.908;2022-09-17T13:00:54;88997.41;;;33.27;17.10
72585;BME280;60618;40.084;32.908;2022-09-17T13:03:38;88996.00;;;33.26;17.34
72585;BME280;60618;40.084;32.908;2022-09-17T13:20:13;89002.25;;;33.11;17.37
72585;BME280;60618;40.084;32.908;2022-09-17T13:22:47;88991.03;;;33.07;17.22
72585;BME280;60618;40.084;32.908;2022-09-17T13:25:17;88987.50;;;33.04;17.28
72585;BME280;60618;40.084;32.908;2022-09-17T13:27:46;88990.16;;;33.02;17.16
72585;BME280;60618;40.084;32.908;2022-09-17T13:30:18;88995.50;;;32.98;17.39
72585;BME280;60618;40.084;32.908;2022-09-17T13:32:47;88985.03;;;32.94;16.79
72585;BME280;60618;40.084;32.908;2022-09-17T13:37:43;88981.41;;;32.90;17.62
72585;BME280;60618;40.084;32.908;2022-09-17T13:42:54;88990.13;;;32.84;17.28
72585;BME280;60618;40.084;32.908;2022-09-17T13:45:23;88984.41;;;32.80;17.25
72585;BME280;60618;40.084;32.908;2022-09-17T13:48:04;88981.41;;;32.74;17.08
72585;BME280;60618;40.084;32.908;2022-09-17T13:50:41;88977.22;;;32.73;17.75
72585;BME280;60618;40.084;32.908;2022-09-17T13:55:55;88971.34;;;32.65;17.27
72585;BME280;60618;40.084;32.908;2022-09-17T13:58:25;88990.59;;;32.63;18.17
72585;BME280;60618;40.084;32.908;2022-09-17T14:01:04;88987.72;;;32.61;17.71
72585;BME280;60618;40.084;32.908;2022-09-17T14:13:53;88984.19;;;32.42;17.57
72585;BME280;60618;40.084;32.908;2022-09-17T14:32:12;88973.84;;;32.11;17.72
72585;BME280;60618;40.084;32.908;2022-09-17T14:34:41;88975.69;;;32.07;17.13
72585;BME280;60618;40.084;32.908;2022-09-17T14:37:11;88976.22;;;32.03;17.52
72585;BME280;60618;40.084;32.908;2022-09-17T14:39:39;88974.72;;;32.00;17.56
72585;BME280;60618;40.084;32.908;2022-09-17T14:42:14;88978.63;;;31.95;17.86
72585;BME280;60618;40.084;32.908;2022-09-17T14:44:56;88972.22;;;31.90;18.00
72585;BME280;60618;40.084;32.908;2022-09-17T14:47:24;88969.19;;;31.84;17.85
72585;BME280;60618;40.084;32.908;2022-09-17T14:49:52;88975.94;;;31.81;17.84
72585;BME280;60618;40.084;32.908;2022-09-17T14:55:16;88979.59;;;31.72;18.15
72585;BME280;60618;40.084;32.908;2022-09-17T14:57:54;88980.69;;;31.65;17.95
72585;BME280;60618;40.084;32.908;2022-09-17T15:00:27;88978.34;;;31.59;18.15
72585;BME280;60618;40.084;32.908;2022-09-17T15:02:58;88977.47;;;31.55;18.22
72585;BME280;60618;40.084;32.908;2022-09-17T15:05:28;88980.63;;;31.49;18.09
72585;BME280;60618;40.084;32.908;2022-09-17T15:08:16;88974.22;;;31.45;18.02
72585;BME280;60618;40.084;32.908;2022-09-17T15:10:56;88982.19;;;31.39;18.40
72585;BME280;60618;40.084;32.908;2022-09-17T15:13:27;88985.38;;;31.33;17.83
72585;BME280;60618;40.084;32.908;2022-09-17T15:18:52;88982.75;;;31.21;18.17
72585;BME280;60618;40.084;32.908;2022-09-17T15:21:39;88994.16;;;31.16;18.60
72585;BME280;60618;40.084;32.908;2022-09-17T15:24:33;88981.31;;;31.06;18.34
72585;BME280;60618;40.084;32.908;2022-09-17T15:27:12;88987.97;;;31.01;18.61
72585;BME280;60618;40.084;32.908;2022-09-17T15:29:44;88982.16;;;30.95;18.68
72585;BME280;60618;40.084;32.908;2022-09-17T15:32:13;88983.91;;;30.89;18.44
72585;BME280;60618;40.084;32.908;2022-09-17T15:34:40;88980.13;;;30.82;18.74
72585;BME280;60618;40.084;32.908;2022-09-17T15:39:42;88980.25;;;30.70;18.48
72585;BME280;60618;40.084;32.908;2022-09-17T15:42:17;88979.81;;;30.62;18.39
72585;BME280;60618;40.084;32.908;2022-09-17T15:45:18;88985.03;;;30.56;18.72
72585;BME280;60618;40.084;32.908;2022-09-17T15:47:54;88975.53;;;30.45;18.84
72585;BME280;60618;40.084;32.908;2022-09-17T15:50:28;88979.53;;;30.42;18.85
72585;BME280;60618;40.084;32.908;2022-09-17T15:55:39;88978.06;;;30.28;19.08
72585;BME280;60618;40.084;32.908;2022-09-17T16:33:16;88978.66;;;27.91;21.05
72585;BME280;60618;40.084;32.908;2022-09-17T16:35:44;88982.47;;;27.86;21.15
72585;BME280;60618;40.084;32.908;2022-09-17T16:38:11;88989.94;;;27.86;21.48
72585;BME280;60618;40.084;32.908;2022-09-17T16:40:42;88985.78;;;27.85;21.25
72585;BME280;60618;40.084;32.908;2022-09-17T16:43:10;88987.97;;;27.86;21.26
72585;BME280;60618;40.084;32.908;2022-09-17T16:45:36;88984.03;;;27.89;21.58
72585;BME280;60618;40.084;32.908;2022-09-17T16:48:04;88992.13;;;27.87;21.23
72585;BME280;60618;40.084;32.908;2022-09-17T16:50:32;88986.16;;;27.91;21.51
72585;BME280;60618;40.084;32.908;2022-09-17T16:53:00;88990.91;;;27.90;21.19
72585;BME280;60618;40.084;32.908;2022-09-17T16:55:31;88993.19;;;27.94;21.52
72585;BME280;60618;40.084;32.908;2022-09-17T16:57:58;88997.72;;;27.89;21.13
72585;BME280;60618;40.084;32.908;2022-09-17T17:00:27;88999.13;;;27.90;21.28
72585;BME280;60618;40.084;32.908;2022-09-17T17:02:55;88995.81;;;27.92;21.21
72585;BME280;60618;40.084;32.908;2022-09-17T17:05:23;89001.38;;;27.94;21.29
72585;BME280;60618;40.084;32.908;2022-09-17T17:07:51;89002.69;;;27.93;21.00